LFSBLFBE

Guest
Details From LFSB - Basle-mulhouse
To LFBE - Bergerac Roumaniere
Flight Number -
Tags Generated
Created
Modified
Stats Distance 336 nm / 622 km
Max Altitude 0 ft / 0 m
Waypoints 3
Social Downloads 0
Likes 0
Share VATSIM

Download

Looking for another format? Having issues loading an existing format? Contact us
Advertisement - Login to hide

Notes

Generated

Route

LFSB BUGUS LFBE

ID Type Via Altitude Latitude Longitude Leg Dist Tot Dist Heading (true) Name
O LFSB APT - 0 ft / 0 m 47.60118˚ 7.51797˚ - 0 nm - Bale-Mulhouse
BUGUS FIX - 0 ft / 0 m 45.00000˚ 0.96056˚ 313 nm 313 nm 243° / 238° -
O LFBE APT - 0 ft / 0 m 44.82527˚ 0.50495˚ 22 nm 335 nm 242° / 241° -

Altitude Profile

Advertisement - Login to hide

Weather


0- 5 10 15 20 25 30 35+ Temperature / ° C

Clouds and Precipitation
Forecast for 2018-05-26 18:00 UTC. Updated 3 hours ago

Ground ~20,000 ft ~40,000 ft Winds

LFSB

Details ICAO LFSB (MLH)
Name Bale-Mulhouse
Region France
Timezone Europe/Paris (UTC+2.0)
Stats Elevation 885 ft / 270 m (AMSL)
Location 47.595810° 7.524806°
Runways 2
Magnetic Variation 2.140° E

METAR

LFSB 262000Z VRB02KT CAVOK 23/16 Q1019 NOSIG

Decode

TAF

TAF LFSB 261700Z 2618/2718 VRB03KT CAVOK PROB30 TEMPO 2619/2622 3000 -TSRA SCT060CB TEMPO 2711/2718 4000 SHRA SCT060CB PROB30 TEMPO 2712/2718 2000 TSRA

Decode

Departure Runways

ID Width Length Bearing (true) Bearing (mag) Surface Threshold Offset Overrun Length
08 193 ft / 59 m 5,956 ft / 1,816 m 76.91° 74.77° Concrete 0 ft / 0 m 0 ft / 0 m
15 197 ft / 60 m 12,802 ft / 3,902 m 154.86° 152.72° Concrete 0 ft / 0 m 0 ft / 0 m
26 193 ft / 59 m 5,956 ft / 1,816 m 256.93° 254.79° Concrete 722 ft / 220 m 0 ft / 0 m
33 197 ft / 60 m 12,802 ft / 3,902 m 334.88° 332.74° Concrete 3,675 ft / 1,120 m 0 ft / 0 m

LFBE

Details ICAO LFBE (EGC)
Name Bergerac Roumaniere
Region France
Timezone Europe/Paris (UTC+2.0)
Stats Elevation 171 ft / 52 m (AMSL)
Location 44.824525° 0.518776°
Runways 1
Magnetic Variation 0.345° E

METAR

LFBE 262000Z AUTO 26007KT 9999 -RA ///CB 19/16 Q1015

Decode

TAF

TAF LFBE 261933Z 2619/2712 CNL

Decode

Destination Runways

ID Width Length Bearing (true) Bearing (mag) Surface Threshold Offset Overrun Length
10 148 ft / 45 m 7,178 ft / 2,188 m 94.33° 93.99° Asphalt 687 ft / 209 m 0 ft / 0 m
28 148 ft / 45 m 7,178 ft / 2,188 m 274.35° 274.01° Asphalt 804 ft / 245 m 0 ft / 0 m

Approach Navaids

Runway Type Ident Frequency Range Bearing (true) Bearing (mag) Slope Elevation
28 Localiser RM 108.15 MHz 18 nm / 33 km 274.33° 273.98° - 184 ft / 56 m (AMSL)
28 Glidescope RM 108.15 MHz 10 nm / 19 km 274.34° 273.99° 3.00° 220 ft / 67 m (AMSL)